Ghedi Airport LIPL

Flugplatz Daten

Name: Ghedi Airport

Ident: LIPL

Lat: 45,43220139

Long: 10,2677002

Platzhöhe: 333 ft

IataCode:

City: Ghedi

Metar

2022/08/13 17:55
LIPL 131755Z 18004KT CAVOK 28/12 Q1012 RMK SKC VIS MIN 9999 WIND THR31 19004KT WIND THR13 18004KT BLU

Taf

2022/06/07 18:24
TAF TAF LIPL 071700Z 0718/0806 09009KT 9999 FEW035
Gewünschte Webcam nicht vorhanden? Dann fügen Sie eine hinzu. Sie wird dann so schnell wie möglich freigeschaltet
Url: Title: